sensor_id;sensor_type;location;lat;lon;timestamp;P1;durP1;ratioP1;P2;durP2;ratioP2
2562;SDS011;1291;51.420;6.970;2023-07-13T00:00:05;2.83;;;1.60;;
2562;SDS011;1291;51.420;6.970;2023-07-13T00:02:34;5.13;;;1.98;;
2562;SDS011;1291;51.420;6.970;2023-07-13T00:05:00;6.45;;;1.70;;
2562;SDS011;1291;51.420;6.970;2023-07-13T00:07:25;4.82;;;1.77;;
2562;SDS011;1291;51.420;6.970;2023-07-13T00:09:51;5.85;;;1.98;;
2562;SDS011;1291;51.420;6.970;2023-07-13T00:12:27;2.75;;;1.67;;
2562;SDS011;1291;51.420;6.970;2023-07-13T00:14:54;3.03;;;1.60;;
2562;SDS011;1291;51.420;6.970;2023-07-13T00:17:22;2.65;;;1.50;;
2562;SDS011;1291;51.420;6.970;2023-07-13T00:19:47;4.60;;;1.65;;
2562;SDS011;1291;51.420;6.970;2023-07-13T00:22:12;4.38;;;1.60;;
2562;SDS011;1291;51.420;6.970;2023-07-13T00:24:38;6.03;;;1.40;;
2562;SDS011;1291;51.420;6.970;2023-07-13T00:27:07;4.93;;;1.52;;
2562;SDS011;1291;51.420;6.970;2023-07-13T00:29:35;5.35;;;1.75;;
2562;SDS011;1291;51.420;6.970;2023-07-13T00:32:02;5.20;;;1.88;;
2562;SDS011;1291;51.420;6.970;2023-07-13T00:34:30;8.27;;;1.88;;
2562;SDS011;1291;51.420;6.970;2023-07-13T00:36:56;5.95;;;1.65;;
2562;SDS011;1291;51.420;6.970;2023-07-13T00:39:21;6.18;;;1.50;;
2562;SDS011;1291;51.420;6.970;2023-07-13T00:41:50;6.05;;;2.00;;
2562;SDS011;1291;51.420;6.970;2023-07-13T00:44:17;7.30;;;1.73;;
2562;SDS011;1291;51.420;6.970;2023-07-13T02:21:57;3.70;;;1.50;;
2562;SDS011;1291;51.420;6.970;2023-07-13T02:24:23;1.88;;;1.42;;
2562;SDS011;1291;51.420;6.970;2023-07-13T02:26:48;5.88;;;1.50;;
2562;SDS011;1291;51.420;6.970;2023-07-13T02:29:14;4.25;;;1.33;;
2562;SDS011;1291;51.420;6.970;2023-07-13T02:31:39;9.60;;;1.80;;
2562;SDS011;1291;51.420;6.970;2023-07-13T02:34:04;7.05;;;1.60;;
2562;SDS011;1291;51.420;6.970;2023-07-13T02:36:30;5.90;;;2.10;;
2562;SDS011;1291;51.420;6.970;2023-07-13T02:41:32;2.33;;;1.27;;
2562;SDS011;1291;51.420;6.970;2023-07-13T03:01:13;2.17;;;1.37;;
2562;SDS011;1291;51.420;6.970;2023-07-13T03:03:44;4.70;;;1.80;;
2562;SDS011;1291;51.420;6.970;2023-07-13T03:06:13;5.97;;;1.75;;
2562;SDS011;1291;51.420;6.970;2023-07-13T03:08:40;5.35;;;1.88;;
2562;SDS011;1291;51.420;6.970;2023-07-13T03:11:07;3.90;;;1.50;;
2562;SDS011;1291;51.420;6.970;2023-07-13T03:13:36;3.90;;;1.42;;
2562;SDS011;1291;51.420;6.970;2023-07-13T03:16:04;6.13;;;1.85;;
2562;SDS011;1291;51.420;6.970;2023-07-13T03:18:45;3.63;;;1.30;;
2562;SDS011;1291;51.420;6.970;2023-07-13T03:21:14;4.68;;;1.42;;
2562;SDS011;1291;51.420;6.970;2023-07-13T03:23:40;5.05;;;1.70;;
2562;SDS011;1291;51.420;6.970;2023-07-13T03:26:06;5.72;;;1.20;;
2562;SDS011;1291;51.420;6.970;2023-07-13T03:28:37;7.05;;;1.50;;
2562;SDS011;1291;51.420;6.970;2023-07-13T03:31:04;6.95;;;2.00;;
2562;SDS011;1291;51.420;6.970;2023-07-13T03:33:38;4.55;;;1.70;;
2562;SDS011;1291;51.420;6.970;2023-07-13T03:36:04;4.25;;;1.67;;
2562;SDS011;1291;51.420;6.970;2023-07-13T03:38:30;7.53;;;2.03;;
2562;SDS011;1291;51.420;6.970;2023-07-13T03:40:55;2.85;;;1.48;;
2562;SDS011;1291;51.420;6.970;2023-07-13T03:43:20;5.90;;;1.70;;
2562;SDS011;1291;51.420;6.970;2023-07-13T03:45:46;3.25;;;1.67;;
2562;SDS011;1291;51.420;6.970;2023-07-13T03:48:11;6.10;;;2.28;;
2562;SDS011;1291;51.420;6.970;2023-07-13T03:50:37;10.20;;;2.30;;
2562;SDS011;1291;51.420;6.970;2023-07-13T03:53:03;4.43;;;1.50;;
2562;SDS011;1291;51.420;6.970;2023-07-13T03:55:32;9.43;;;1.80;;
2562;SDS011;1291;51.420;6.970;2023-07-13T03:57:58;6.55;;;1.40;;
2562;SDS011;1291;51.420;6.970;2023-07-13T04:00:49;4.25;;;1.90;;
2562;SDS011;1291;51.420;6.970;2023-07-13T04:03:15;6.38;;;1.92;;
2562;SDS011;1291;51.420;6.970;2023-07-13T04:05:41;8.57;;;2.30;;
2562;SDS011;1291;51.420;6.970;2023-07-13T04:08:06;6.20;;;1.80;;
2562;SDS011;1291;51.420;6.970;2023-07-13T04:10:32;3.88;;;1.65;;
2562;SDS011;1291;51.420;6.970;2023-07-13T04:12:58;7.57;;;2.20;;
2562;SDS011;1291;51.420;6.970;2023-07-13T04:15:23;5.80;;;1.63;;
2562;SDS011;1291;51.420;6.970;2023-07-13T04:17:48;7.40;;;1.83;;
2562;SDS011;1291;51.420;6.970;2023-07-13T04:20:14;5.35;;;1.60;;
2562;SDS011;1291;51.420;6.970;2023-07-13T04:22:39;7.28;;;1.92;;
2562;SDS011;1291;51.420;6.970;2023-07-13T04:25:04;5.10;;;1.70;;
2562;SDS011;1291;51.420;6.970;2023-07-13T04:27:30;5.00;;;1.85;;
2562;SDS011;1291;51.420;6.970;2023-07-13T04:29:58;4.90;;;2.05;;
2562;SDS011;1291;51.420;6.970;2023-07-13T04:32:23;7.90;;;1.65;;
2562;SDS011;1291;51.420;6.970;2023-07-13T04:38:53;5.63;;;1.50;;
2562;SDS011;1291;51.420;6.970;2023-07-13T04:41:20;9.23;;;1.73;;
2562;SDS011;1291;51.420;6.970;2023-07-13T04:43:46;6.43;;;1.73;;
2562;SDS011;1291;51.420;6.970;2023-07-13T04:46:12;5.72;;;1.95;;
2562;SDS011;1291;51.420;6.970;2023-07-13T04:48:40;8.90;;;1.77;;
2562;SDS011;1291;51.420;6.970;2023-07-13T04:51:05;8.00;;;2.30;;
2562;SDS011;1291;51.420;6.970;2023-07-13T04:53:32;6.43;;;2.10;;
2562;SDS011;1291;51.420;6.970;2023-07-13T04:55:59;5.82;;;2.20;;
2562;SDS011;1291;51.420;6.970;2023-07-13T04:58:25;7.55;;;1.92;;
2562;SDS011;1291;51.420;6.970;2023-07-13T05:00:50;7.85;;;1.65;;
2562;SDS011;1291;51.420;6.970;2023-07-13T05:03:16;11.00;;;2.20;;
2562;SDS011;1291;51.420;6.970;2023-07-13T05:05:41;9.02;;;1.83;;
2562;SDS011;1291;51.420;6.970;2023-07-13T05:08:07;6.15;;;2.00;;
2562;SDS011;1291;51.420;6.970;2023-07-13T05:10:32;5.55;;;2.00;;
2562;SDS011;1291;51.420;6.970;2023-07-13T05:12:58;3.08;;;1.60;;
2562;SDS011;1291;51.420;6.970;2023-07-13T05:15:23;7.35;;;1.65;;
2562;SDS011;1291;51.420;6.970;2023-07-13T05:17:50;4.00;;;1.77;;
2562;SDS011;1291;51.420;6.970;2023-07-13T05:20:16;8.23;;;2.22;;
2562;SDS011;1291;51.420;6.970;2023-07-13T05:22:42;6.43;;;1.88;;
2562;SDS011;1291;51.420;6.970;2023-07-13T05:25:08;3.15;;;1.60;;
2562;SDS011;1291;51.420;6.970;2023-07-13T05:27:34;4.85;;;1.98;;
2562;SDS011;1291;51.420;6.970;2023-07-13T05:30:01;7.95;;;2.45;;
2562;SDS011;1291;51.420;6.970;2023-07-13T05:32:30;7.68;;;2.20;;
2562;SDS011;1291;51.420;6.970;2023-07-13T05:34:55;4.57;;;2.20;;
2562;SDS011;1291;51.420;6.970;2023-07-13T05:37:21;6.65;;;2.03;;
2562;SDS011;1291;51.420;6.970;2023-07-13T05:39:46;6.85;;;2.60;;
2562;SDS011;1291;51.420;6.970;2023-07-13T05:42:11;8.45;;;2.20;;
2562;SDS011;1291;51.420;6.970;2023-07-13T05:44:37;5.05;;;1.75;;
2562;SDS011;1291;51.420;6.970;2023-07-13T05:47:02;8.93;;;1.95;;
2562;SDS011;1291;51.420;6.970;2023-07-13T05:49:29;9.00;;;2.25;;
2562;SDS011;1291;51.420;6.970;2023-07-13T05:54:43;5.85;;;1.73;;
2562;SDS011;1291;51.420;6.970;2023-07-13T05:57:08;10.20;;;2.88;;
2562;SDS011;1291;51.420;6.970;2023-07-13T05:59:35;6.40;;;2.40;;
2562;SDS011;1291;51.420;6.970;2023-07-13T06:02:00;9.45;;;2.47;;
2562;SDS011;1291;51.420;6.970;2023-07-13T06:04:26;8.50;;;2.65;;
2562;SDS011;1291;51.420;6.970;2023-07-13T06:06:51;7.97;;;2.88;;
2562;SDS011;1291;51.420;6.970;2023-07-13T06:09:16;5.30;;;2.03;;
2562;SDS011;1291;51.420;6.970;2023-07-13T06:11:42;9.52;;;2.78;;
2562;SDS011;1291;51.420;6.970;2023-07-13T06:14:08;7.53;;;2.30;;
2562;SDS011;1291;51.420;6.970;2023-07-13T06:16:33;8.02;;;2.65;;
2562;SDS011;1291;51.420;6.970;2023-07-13T06:18:58;9.45;;;2.35;;
2562;SDS011;1291;51.420;6.970;2023-07-13T06:21:24;8.88;;;2.72;;
2562;SDS011;1291;51.420;6.970;2023-07-13T06:23:50;7.65;;;2.78;;
2562;SDS011;1291;51.420;6.970;2023-07-13T06:26:17;9.50;;;2.28;;
2562;SDS011;1291;51.420;6.970;2023-07-13T06:28:44;10.18;;;2.92;;
2562;SDS011;1291;51.420;6.970;2023-07-13T06:31:10;7.50;;;2.85;;
2562;SDS011;1291;51.420;6.970;2023-07-13T06:33:37;10.95;;;3.10;;
2562;SDS011;1291;51.420;6.970;2023-07-13T06:36:03;9.80;;;2.50;;
2562;SDS011;1291;51.420;6.970;2023-07-13T06:38:30;5.00;;;2.30;;
2562;SDS011;1291;51.420;6.970;2023-07-13T06:40:55;11.10;;;2.67;;
2562;SDS011;1291;51.420;6.970;2023-07-13T06:43:20;10.32;;;3.35;;
2562;SDS011;1291;51.420;6.970;2023-07-13T06:45:48;5.85;;;2.53;;
2562;SDS011;1291;51.420;6.970;2023-07-13T06:48:18;8.55;;;2.50;;
2562;SDS011;1291;51.420;6.970;2023-07-13T06:50:48;6.53;;;2.70;;
2562;SDS011;1291;51.420;6.970;2023-07-13T06:53:15;13.55;;;2.90;;
2562;SDS011;1291;51.420;6.970;2023-07-13T06:55:40;8.57;;;2.92;;
2562;SDS011;1291;51.420;6.970;2023-07-13T06:58:08;8.27;;;2.40;;
2562;SDS011;1291;51.420;6.970;2023-07-13T07:00:34;13.50;;;3.63;;
2562;SDS011;1291;51.420;6.970;2023-07-13T07:02:59;7.75;;;3.08;;
2562;SDS011;1291;51.420;6.970;2023-07-13T07:05:24;13.10;;;4.15;;
2562;SDS011;1291;51.420;6.970;2023-07-13T07:07:50;5.30;;;2.83;;
2562;SDS011;1291;51.420;6.970;2023-07-13T07:10:16;7.47;;;3.17;;
2562;SDS011;1291;51.420;6.970;2023-07-13T07:12:42;7.38;;;3.10;;
2562;SDS011;1291;51.420;6.970;2023-07-13T07:15:08;10.73;;;2.88;;
2562;SDS011;1291;51.420;6.970;2023-07-13T07:17:34;10.15;;;3.45;;
2562;SDS011;1291;51.420;6.970;2023-07-13T07:19:59;10.60;;;3.22;;
2562;SDS011;1291;51.420;6.970;2023-07-13T07:22:24;9.07;;;2.78;;
2562;SDS011;1291;51.420;6.970;2023-07-13T07:24:52;9.02;;;3.03;;
2562;SDS011;1291;51.420;6.970;2023-07-13T07:27:18;8.27;;;3.40;;
2562;SDS011;1291;51.420;6.970;2023-07-13T07:29:43;8.48;;;2.70;;
2562;SDS011;1291;51.420;6.970;2023-07-13T07:32:08;9.40;;;3.53;;
2562;SDS011;1291;51.420;6.970;2023-07-13T07:34:34;6.57;;;3.20;;
2562;SDS011;1291;51.420;6.970;2023-07-13T07:37:00;9.75;;;3.30;;
2562;SDS011;1291;51.420;6.970;2023-07-13T07:39:26;8.38;;;3.28;;
2562;SDS011;1291;51.420;6.970;2023-07-13T07:41:51;13.23;;;3.60;;
2562;SDS011;1291;51.420;6.970;2023-07-13T07:44:17;6.55;;;3.03;;
2562;SDS011;1291;51.420;6.970;2023-07-13T07:46:42;11.25;;;3.55;;
2562;SDS011;1291;51.420;6.970;2023-07-13T07:49:07;9.85;;;3.72;;
2562;SDS011;1291;51.420;6.970;2023-07-13T07:51:33;6.75;;;2.78;;
2562;SDS011;1291;51.420;6.970;2023-07-13T07:53:58;7.00;;;3.28;;
2562;SDS011;1291;51.420;6.970;2023-07-13T07:56:23;5.85;;;3.00;;
2562;SDS011;1291;51.420;6.970;2023-07-13T07:58:48;9.52;;;3.72;;
2562;SDS011;1291;51.420;6.970;2023-07-13T08:01:14;7.88;;;3.60;;
2562;SDS011;1291;51.420;6.970;2023-07-13T08:03:44;9.50;;;3.97;;
2562;SDS011;1291;51.420;6.970;2023-07-13T08:06:09;9.70;;;3.38;;
2562;SDS011;1291;51.420;6.970;2023-07-13T08:08:35;15.43;;;3.33;;
2562;SDS011;1291;51.420;6.970;2023-07-13T08:11:07;10.55;;;3.45;;
2562;SDS011;1291;51.420;6.970;2023-07-13T08:13:33;9.23;;;3.40;;
2562;SDS011;1291;51.420;6.970;2023-07-13T08:16:05;6.80;;;2.75;;
2562;SDS011;1291;51.420;6.970;2023-07-13T08:18:38;7.20;;;3.13;;
2562;SDS011;1291;51.420;6.970;2023-07-13T08:21:04;9.52;;;3.60;;
2562;SDS011;1291;51.420;6.970;2023-07-13T08:23:30;9.45;;;3.55;;
2562;SDS011;1291;51.420;6.970;2023-07-13T08:25:57;10.18;;;3.50;;
2562;SDS011;1291;51.420;6.970;2023-07-13T08:28:23;7.93;;;3.25;;
2562;SDS011;1291;51.420;6.970;2023-07-13T08:30:49;7.93;;;3.20;;
2562;SDS011;1291;51.420;6.970;2023-07-13T08:33:18;10.18;;;3.55;;
2562;SDS011;1291;51.420;6.970;2023-07-13T08:35:46;10.68;;;3.70;;
2562;SDS011;1291;51.420;6.970;2023-07-13T08:38:12;9.20;;;3.85;;
2562;SDS011;1291;51.420;6.970;2023-07-13T08:40:37;7.50;;;2.72;;
2562;SDS011;1291;51.420;6.970;2023-07-13T08:43:04;4.93;;;3.22;;
2562;SDS011;1291;51.420;6.970;2023-07-13T08:45:32;11.52;;;3.50;;
2562;SDS011;1291;51.420;6.970;2023-07-13T08:48:11;10.32;;;3.35;;
2562;SDS011;1291;51.420;6.970;2023-07-13T08:51:22;7.90;;;4.45;;
2562;SDS011;1291;51.420;6.970;2023-07-13T08:53:41;18.88;;;7.68;;
2562;SDS011;1291;51.420;6.970;2023-07-13T08:56:19;8.07;;;3.60;;
2562;SDS011;1291;51.420;6.970;2023-07-13T08:58:47;13.93;;;5.30;;
2562;SDS011;1291;51.420;6.970;2023-07-13T09:03:59;9.32;;;3.17;;
2562;SDS011;1291;51.420;6.970;2023-07-13T09:06:28;8.98;;;2.83;;
2562;SDS011;1291;51.420;6.970;2023-07-13T09:09:03;9.43;;;3.55;;
2562;SDS011;1291;51.420;6.970;2023-07-13T09:11:52;18.05;;;4.05;;
2562;SDS011;1291;51.420;6.970;2023-07-13T09:17:24;9.68;;;2.85;;
2562;SDS011;1291;51.420;6.970;2023-07-13T09:20:10;7.72;;;3.10;;
2562;SDS011;1291;51.420;6.970;2023-07-13T09:22:50;9.00;;;2.75;;
2562;SDS011;1291;51.420;6.970;2023-07-13T09:28:02;7.53;;;2.95;;
2562;SDS011;1291;51.420;6.970;2023-07-13T09:30:38;10.35;;;3.05;;
2562;SDS011;1291;51.420;6.970;2023-07-13T09:33:10;9.68;;;2.95;;
2562;SDS011;1291;51.420;6.970;2023-07-13T09:35:35;7.47;;;3.50;;
2562;SDS011;1291;51.420;6.970;2023-07-13T09:43:19;9.65;;;3.25;;
2562;SDS011;1291;51.420;6.970;2023-07-13T09:45:48;7.35;;;2.85;;
2562;SDS011;1291;51.420;6.970;2023-07-13T09:48:15;7.60;;;2.97;;
2562;SDS011;1291;51.420;6.970;2023-07-13T09:50:42;9.20;;;3.22;;
2562;SDS011;1291;51.420;6.970;2023-07-13T09:53:16;6.30;;;3.13;;
2562;SDS011;1291;51.420;6.970;2023-07-13T09:55:44;8.60;;;3.10;;
2562;SDS011;1291;51.420;6.970;2023-07-13T09:58:24;11.45;;;3.53;;
2562;SDS011;1291;51.420;6.970;2023-07-13T10:00:58;13.35;;;3.75;;
2562;SDS011;1291;51.420;6.970;2023-07-13T10:03:32;9.63;;;3.28;;
2562;SDS011;1291;51.420;6.970;2023-07-13T10:06:19;9.23;;;3.42;;
2562;SDS011;1291;51.420;6.970;2023-07-13T10:08:47;10.52;;;3.22;;
2562;SDS011;1291;51.420;6.970;2023-07-13T10:11:20;10.43;;;3.40;;
2562;SDS011;1291;51.420;6.970;2023-07-13T10:13:55;9.50;;;3.60;;
2562;SDS011;1291;51.420;6.970;2023-07-13T10:16:21;6.20;;;2.92;;
2562;SDS011;1291;51.420;6.970;2023-07-13T10:19:31;11.23;;;3.50;;
2562;SDS011;1291;51.420;6.970;2023-07-13T10:21:43;7.70;;;3.42;;
2562;SDS011;1291;51.420;6.970;2023-07-13T10:24:35;7.07;;;2.90;;
2562;SDS011;1291;51.420;6.970;2023-07-13T10:27:16;7.43;;;3.30;;
2562;SDS011;1291;51.420;6.970;2023-07-13T10:29:57;11.77;;;3.10;;
2562;SDS011;1291;51.420;6.970;2023-07-13T10:32:30;5.35;;;2.70;;
2562;SDS011;1291;51.420;6.970;2023-07-13T10:34:55;6.40;;;2.92;;
2562;SDS011;1291;51.420;6.970;2023-07-13T10:37:24;8.52;;;2.85;;
2562;SDS011;1291;51.420;6.970;2023-07-13T10:39:52;8.75;;;2.97;;
2562;SDS011;1291;51.420;6.970;2023-07-13T10:42:34;10.80;;;3.03;;
2562;SDS011;1291;51.420;6.970;2023-07-13T10:45:02;8.88;;;2.60;;
2562;SDS011;1291;51.420;6.970;2023-07-13T10:47:43;5.97;;;3.20;;
2562;SDS011;1291;51.420;6.970;2023-07-13T10:50:19;10.77;;;2.92;;
2562;SDS011;1291;51.420;6.970;2023-07-13T10:52:48;8.02;;;2.92;;
2562;SDS011;1291;51.420;6.970;2023-07-13T11:03:32;7.88;;;2.67;;
2562;SDS011;1291;51.420;6.970;2023-07-13T11:09:03;7.65;;;2.50;;
2562;SDS011;1291;51.420;6.970;2023-07-13T11:11:42;6.93;;;2.67;;
2562;SDS011;1291;51.420;6.970;2023-07-13T11:16:46;5.60;;;2.70;;
2562;SDS011;1291;51.420;6.970;2023-07-13T11:24:50;6.80;;;2.63;;
2562;SDS011;1291;51.420;6.970;2023-07-13T11:30:20;9.35;;;3.05;;
2562;SDS011;1291;51.420;6.970;2023-07-13T11:32:50;5.60;;;2.40;;
2562;SDS011;1291;51.420;6.970;2023-07-13T11:35:21;4.35;;;2.30;;
2562;SDS011;1291;51.420;6.970;2023-07-13T11:37:49;6.88;;;2.15;;
2562;SDS011;1291;51.420;6.970;2023-07-13T11:40:16;5.10;;;2.33;;
2562;SDS011;1291;51.420;6.970;2023-07-13T11:42:41;8.98;;;2.70;;
2562;SDS011;1291;51.420;6.970;2023-07-13T11:45:20;6.65;;;2.47;;
2562;SDS011;1291;51.420;6.970;2023-07-13T11:47:48;5.30;;;2.50;;
2562;SDS011;1291;51.420;6.970;2023-07-13T11:50:18;5.60;;;2.17;;
2562;SDS011;1291;51.420;6.970;2023-07-13T11:52:45;5.93;;;2.15;;
2562;SDS011;1291;51.420;6.970;2023-07-13T11:55:15;4.45;;;2.25;;
2562;SDS011;1291;51.420;6.970;2023-07-13T11:57:48;5.53;;;2.60;;
2562;SDS011;1291;51.420;6.970;2023-07-13T12:00:21;5.82;;;2.28;;
2562;SDS011;1291;51.420;6.970;2023-07-13T12:02:49;3.92;;;2.33;;
2562;SDS011;1291;51.420;6.970;2023-07-13T12:05:17;7.43;;;2.22;;
2562;SDS011;1291;51.420;6.970;2023-07-13T12:07:45;3.65;;;1.85;;
2562;SDS011;1291;51.420;6.970;2023-07-13T12:10:19;4.13;;;2.13;;
2562;SDS011;1291;51.420;6.970;2023-07-13T12:13:02;9.40;;;2.30;;
2562;SDS011;1291;51.420;6.970;2023-07-13T12:18:00;5.95;;;2.00;;
2562;SDS011;1291;51.420;6.970;2023-07-13T12:20:27;4.97;;;1.80;;
2562;SDS011;1291;51.420;6.970;2023-07-13T12:22:58;5.53;;;2.35;;
2562;SDS011;1291;51.420;6.970;2023-07-13T12:25:24;4.07;;;2.10;;
2562;SDS011;1291;51.420;6.970;2023-07-13T12:27:50;3.83;;;1.80;;
2562;SDS011;1291;51.420;6.970;2023-07-13T12:33:06;5.05;;;2.00;;
2562;SDS011;1291;51.420;6.970;2023-07-13T12:35:39;3.25;;;1.90;;
2562;SDS011;1291;51.420;6.970;2023-07-13T12:38:09;8.55;;;2.80;;
2562;SDS011;1291;51.420;6.970;2023-07-13T12:40:35;2.33;;;1.80;;
2562;SDS011;1291;51.420;6.970;2023-07-13T12:43:02;3.95;;;1.83;;
2562;SDS011;1291;51.420;6.970;2023-07-13T12:45:34;4.93;;;2.13;;
2562;SDS011;1291;51.420;6.970;2023-07-13T12:48:04;3.10;;;1.90;;
2562;SDS011;1291;51.420;6.970;2023-07-13T12:50:39;2.40;;;1.73;;
2562;SDS011;1291;51.420;6.970;2023-07-13T12:53:12;3.95;;;1.70;;
2562;SDS011;1291;51.420;6.970;2023-07-13T12:55:44;4.32;;;2.00;;
2562;SDS011;1291;51.420;6.970;2023-07-13T12:58:24;3.97;;;1.60;;
2562;SDS011;1291;51.420;6.970;2023-07-13T13:00:53;4.15;;;1.80;;
2562;SDS011;1291;51.420;6.970;2023-07-13T13:06:00;7.10;;;1.80;;
2562;SDS011;1291;51.420;6.970;2023-07-13T13:08:31;7.03;;;1.88;;
2562;SDS011;1291;51.420;6.970;2023-07-13T13:10:57;4.30;;;1.63;;
2562;SDS011;1291;51.420;6.970;2023-07-13T13:13:23;5.82;;;2.10;;
2562;SDS011;1291;51.420;6.970;2023-07-13T13:15:49;7.30;;;2.33;;
2562;SDS011;1291;51.420;6.970;2023-07-13T13:18:16;7.00;;;2.78;;
2562;SDS011;1291;51.420;6.970;2023-07-13T13:20:43;2.90;;;2.22;;
2562;SDS011;1291;51.420;6.970;2023-07-13T13:23:13;4.53;;;1.83;;
2562;SDS011;1291;51.420;6.970;2023-07-13T13:25:40;3.97;;;2.15;;
2562;SDS011;1291;51.420;6.970;2023-07-13T13:28:11;5.13;;;2.17;;
2562;SDS011;1291;51.420;6.970;2023-07-13T13:30:40;3.85;;;2.63;;
2562;SDS011;1291;51.420;6.970;2023-07-13T13:33:08;4.25;;;2.35;;
2562;SDS011;1291;51.420;6.970;2023-07-13T13:35:37;7.68;;;3.13;;
2562;SDS011;1291;51.420;6.970;2023-07-13T13:38:04;3.65;;;2.00;;
2562;SDS011;1291;51.420;6.970;2023-07-13T13:40:35;7.28;;;2.20;;
2562;SDS011;1291;51.420;6.970;2023-07-13T13:43:01;7.55;;;2.45;;
2562;SDS011;1291;51.420;6.970;2023-07-13T13:45:29;4.05;;;2.20;;
2562;SDS011;1291;51.420;6.970;2023-07-13T13:47:56;4.82;;;2.30;;
2562;SDS011;1291;51.420;6.970;2023-07-13T13:50:21;5.63;;;2.20;;
2562;SDS011;1291;51.420;6.970;2023-07-13T13:52:47;6.03;;;2.30;;
2562;SDS011;1291;51.420;6.970;2023-07-13T13:55:14;3.28;;;2.05;;
2562;SDS011;1291;51.420;6.970;2023-07-13T13:57:40;5.25;;;2.50;;
2562;SDS011;1291;51.420;6.970;2023-07-13T14:00:06;5.03;;;1.88;;
2562;SDS011;1291;51.420;6.970;2023-07-13T14:02:36;3.85;;;1.70;;
2562;SDS011;1291;51.420;6.970;2023-07-13T14:05:02;6.95;;;2.38;;
2562;SDS011;1291;51.420;6.970;2023-07-13T14:07:28;4.32;;;2.20;;
2562;SDS011;1291;51.420;6.970;2023-07-13T14:09:57;8.63;;;2.45;;
2562;SDS011;1291;51.420;6.970;2023-07-13T14:12:25;4.32;;;2.00;;
2562;SDS011;1291;51.420;6.970;2023-07-13T14:14:53;5.22;;;2.47;;
2562;SDS011;1291;51.420;6.970;2023-07-13T14:17:20;16.95;;;5.65;;
2562;SDS011;1291;51.420;6.970;2023-07-13T14:19:48;10.68;;;3.58;;
2562;SDS011;1291;51.420;6.970;2023-07-13T14:22:16;5.85;;;3.30;;
2562;SDS011;1291;51.420;6.970;2023-07-13T14:24:48;5.18;;;3.00;;
2562;SDS011;1291;51.420;6.970;2023-07-13T14:27:14;6.70;;;3.00;;
2562;SDS011;1291;51.420;6.970;2023-07-13T14:29:40;6.30;;;2.90;;
2562;SDS011;1291;51.420;6.970;2023-07-13T14:32:09;6.32;;;3.20;;
2562;SDS011;1291;51.420;6.970;2023-07-13T14:34:39;7.00;;;3.28;;
2562;SDS011;1291;51.420;6.970;2023-07-13T14:37:04;7.22;;;3.10;;
2562;SDS011;1291;51.420;6.970;2023-07-13T14:39:33;12.80;;;3.97;;
2562;SDS011;1291;51.420;6.970;2023-07-13T14:41:59;11.18;;;3.95;;
2562;SDS011;1291;51.420;6.970;2023-07-13T14:44:26;8.15;;;3.50;;
2562;SDS011;1291;51.420;6.970;2023-07-13T14:46:54;5.38;;;3.28;;
2562;SDS011;1291;51.420;6.970;2023-07-13T14:49:30;6.93;;;3.42;;
2562;SDS011;1291;51.420;6.970;2023-07-13T14:51:59;6.93;;;3.38;;
2562;SDS011;1291;51.420;6.970;2023-07-13T14:54:26;7.25;;;3.35;;
2562;SDS011;1291;51.420;6.970;2023-07-13T14:56:52;8.13;;;3.50;;
2562;SDS011;1291;51.420;6.970;2023-07-13T14:59:17;9.20;;;3.67;;
2562;SDS011;1291;51.420;6.970;2023-07-13T15:01:46;7.22;;;4.05;;
2562;SDS011;1291;51.420;6.970;2023-07-13T15:04:13;6.93;;;3.63;;
2562;SDS011;1291;51.420;6.970;2023-07-13T15:09:38;4.18;;;3.38;;
2562;SDS011;1291;51.420;6.970;2023-07-13T15:12:04;7.45;;;3.97;;
2562;SDS011;1291;51.420;6.970;2023-07-13T15:14:33;10.00;;;4.18;;
2562;SDS011;1291;51.420;6.970;2023-07-13T15:17:01;6.95;;;3.75;;
2562;SDS011;1291;51.420;6.970;2023-07-13T15:19:27;5.15;;;3.88;;
2562;SDS011;1291;51.420;6.970;2023-07-13T15:21:53;9.85;;;3.40;;
2562;SDS011;1291;51.420;6.970;2023-07-13T16:24:16;4.85;;;2.30;;
2562;SDS011;1291;51.420;6.970;2023-07-13T16:26:45;3.42;;;2.13;;
2562;SDS011;1291;51.420;6.970;2023-07-13T16:29:20;7.25;;;2.47;;
2562;SDS011;1291;51.420;6.970;2023-07-13T16:32:00;3.45;;;2.20;;
2562;SDS011;1291;51.420;6.970;2023-07-13T16:34:36;3.70;;;2.28;;
2562;SDS011;1291;51.420;6.970;2023-07-13T16:37:03;4.22;;;2.50;;
2562;SDS011;1291;51.420;6.970;2023-07-13T16:39:55;6.15;;;2.58;;
2562;SDS011;1291;51.420;6.970;2023-07-13T16:42:23;5.20;;;2.75;;
2562;SDS011;1291;51.420;6.970;2023-07-13T16:44:52;8.68;;;2.95;;
2562;SDS011;1291;51.420;6.970;2023-07-13T16:47:19;4.05;;;2.15;;
2562;SDS011;1291;51.420;6.970;2023-07-13T16:49:44;4.93;;;2.45;;
2562;SDS011;1291;51.420;6.970;2023-07-13T16:52:12;5.07;;;2.47;;
2562;SDS011;1291;51.420;6.970;2023-07-13T16:54:39;4.18;;;2.20;;
2562;SDS011;1291;51.420;6.970;2023-07-13T16:57:12;4.13;;;2.40;;
2562;SDS011;1291;51.420;6.970;2023-07-13T16:59:44;7.55;;;2.47;;
2562;SDS011;1291;51.420;6.970;2023-07-13T17:04:48;4.03;;;2.35;;
2562;SDS011;1291;51.420;6.970;2023-07-13T17:07:14;3.30;;;2.15;;
2562;SDS011;1291;51.420;6.970;2023-07-13T17:09:42;7.57;;;3.55;;
2562;SDS011;1291;51.420;6.970;2023-07-13T17:12:10;3.00;;;2.15;;
2562;SDS011;1291;51.420;6.970;2023-07-13T17:14:36;2.40;;;1.92;;
2562;SDS011;1291;51.420;6.970;2023-07-13T17:20:09;4.97;;;2.30;;
2562;SDS011;1291;51.420;6.970;2023-07-13T17:22:39;3.08;;;2.50;;
2562;SDS011;1291;51.420;6.970;2023-07-13T17:25:04;3.13;;;2.08;;
2562;SDS011;1291;51.420;6.970;2023-07-13T17:27:37;3.03;;;2.20;;
2562;SDS011;1291;51.420;6.970;2023-07-13T17:30:03;3.42;;;2.35;;
2562;SDS011;1291;51.420;6.970;2023-07-13T17:32:28;4.20;;;2.42;;
2562;SDS011;1291;51.420;6.970;2023-07-13T17:34:54;2.95;;;2.30;;
2562;SDS011;1291;51.420;6.970;2023-07-13T17:37:19;5.18;;;2.53;;
2562;SDS011;1291;51.420;6.970;2023-07-13T17:39:45;4.28;;;2.33;;
2562;SDS011;1291;51.420;6.970;2023-07-13T17:42:11;3.90;;;2.65;;
2562;SDS011;1291;51.420;6.970;2023-07-13T17:47:24;10.73;;;2.72;;
2562;SDS011;1291;51.420;6.970;2023-07-13T19:05:47;3.40;;;2.83;;
2562;SDS011;1291;51.420;6.970;2023-07-13T19:08:17;3.38;;;2.95;;
2562;SDS011;1291;51.420;6.970;2023-07-13T19:10:44;3.33;;;3.03;;
2562;SDS011;1291;51.420;6.970;2023-07-13T19:13:13;3.25;;;2.65;;
2562;SDS011;1291;51.420;6.970;2023-07-13T19:15:50;2.97;;;2.78;;
2562;SDS011;1291;51.420;6.970;2023-07-13T19:18:17;7.38;;;3.60;;
2562;SDS011;1291;51.420;6.970;2023-07-13T19:20:45;6.57;;;3.30;;
2562;SDS011;1291;51.420;6.970;2023-07-13T19:25:55;5.50;;;3.63;;
2562;SDS011;1291;51.420;6.970;2023-07-13T19:28:36;4.78;;;3.42;;
2562;SDS011;1291;51.420;6.970;2023-07-13T19:31:04;5.35;;;3.40;;
2562;SDS011;1291;51.420;6.970;2023-07-13T19:33:31;6.68;;;3.40;;
2562;SDS011;1291;51.420;6.970;2023-07-13T19:35:57;5.97;;;3.97;;
2562;SDS011;1291;51.420;6.970;2023-07-13T19:38:25;7.90;;;4.10;;
2562;SDS011;1291;51.420;6.970;2023-07-13T19:40:51;6.95;;;4.38;;
2562;SDS011;1291;51.420;6.970;2023-07-13T19:43:17;6.65;;;4.05;;
2562;SDS011;1291;51.420;6.970;2023-07-13T19:45:43;4.72;;;3.72;;
2562;SDS011;1291;51.420;6.970;2023-07-13T19:48:08;8.23;;;3.92;;
2562;SDS011;1291;51.420;6.970;2023-07-13T19:50:34;9.30;;;3.80;;
2562;SDS011;1291;51.420;6.970;2023-07-13T19:53:02;4.55;;;3.45;;
2562;SDS011;1291;51.420;6.970;2023-07-13T19:55:28;4.53;;;3.28;;
2562;SDS011;1291;51.420;6.970;2023-07-13T19:57:55;3.92;;;3.20;;
2562;SDS011;1291;51.420;6.970;2023-07-13T20:00:25;5.68;;;3.15;;
2562;SDS011;1291;51.420;6.970;2023-07-13T20:02:52;5.20;;;2.92;;
2562;SDS011;1291;51.420;6.970;2023-07-13T20:05:19;5.32;;;3.05;;
2562;SDS011;1291;51.420;6.970;2023-07-13T20:07:48;3.55;;;3.00;;
2562;SDS011;1291;51.420;6.970;2023-07-13T20:10:21;4.80;;;2.60;;
2562;SDS011;1291;51.420;6.970;2023-07-13T20:12:49;3.28;;;2.75;;
2562;SDS011;1291;51.420;6.970;2023-07-13T20:15:18;5.78;;;2.83;;
2562;SDS011;1291;51.420;6.970;2023-07-13T20:17:45;4.70;;;2.47;;
2562;SDS011;1291;51.420;6.970;2023-07-13T20:22:47;5.50;;;2.50;;
2562;SDS011;1291;51.420;6.970;2023-07-13T20:25:16;5.17;;;3.00;;
2562;SDS011;1291;51.420;6.970;2023-07-13T20:27:44;3.17;;;2.70;;
2562;SDS011;1291;51.420;6.970;2023-07-13T20:30:11;3.83;;;3.28;;
2562;SDS011;1291;51.420;6.970;2023-07-13T20:32:37;4.90;;;3.13;;
2562;SDS011;1291;51.420;6.970;2023-07-13T20:35:04;5.38;;;3.13;;
2562;SDS011;1291;51.420;6.970;2023-07-13T20:37:48;4.70;;;2.83;;
2562;SDS011;1291;51.420;6.970;2023-07-13T20:40:17;5.97;;;2.70;;